sensor_id;sensor_type;location;lat;lon;timestamp;P1;durP1;ratioP1;P2;durP2;ratioP2
12433;SDS011;6281;49.038;8.372;2022-10-03T00:00:06;9.67;;;6.67;;
12433;SDS011;6281;49.038;8.372;2022-10-03T00:02:52;13.97;;;6.27;;
12433;SDS011;6281;49.038;8.372;2022-10-03T00:05:38;34.27;;;7.10;;
12433;SDS011;6281;49.038;8.372;2022-10-03T00:08:19;37.80;;;7.20;;
12433;SDS011;6281;49.038;8.372;2022-10-03T00:10:59;67.10;;;7.83;;
12433;SDS011;6281;49.038;8.372;2022-10-03T00:13:38;24.73;;;7.17;;
12433;SDS011;6281;49.038;8.372;2022-10-03T00:16:16;18.43;;;7.20;;
12433;SDS011;6281;49.038;8.372;2022-10-03T00:18:51;15.47;;;6.13;;
12433;SDS011;6281;49.038;8.372;2022-10-03T00:21:33;31.53;;;7.70;;
12433;SDS011;6281;49.038;8.372;2022-10-03T00:24:12;18.63;;;5.37;;
12433;SDS011;6281;49.038;8.372;2022-10-03T00:26:48;7.27;;;5.27;;
12433;SDS011;6281;49.038;8.372;2022-10-03T00:29:28;8.67;;;5.30;;
12433;SDS011;6281;49.038;8.372;2022-10-03T00:32:17;11.90;;;5.07;;
12433;SDS011;6281;49.038;8.372;2022-10-03T00:34:57;8.23;;;4.97;;
12433;SDS011;6281;49.038;8.372;2022-10-03T00:37:32;12.50;;;4.93;;
12433;SDS011;6281;49.038;8.372;2022-10-03T00:43:32;12.10;;;4.93;;
12433;SDS011;6281;49.038;8.372;2022-10-03T00:52:44;7.03;;;4.70;;
12433;SDS011;6281;49.038;8.372;2022-10-03T00:55:27;14.83;;;4.87;;
12433;SDS011;6281;49.038;8.372;2022-10-03T00:58:10;14.27;;;5.13;;
12433;SDS011;6281;49.038;8.372;2022-10-03T01:00:54;12.37;;;4.83;;
12433;SDS011;6281;49.038;8.372;2022-10-03T01:03:35;7.97;;;5.00;;
12433;SDS011;6281;49.038;8.372;2022-10-03T01:06:18;8.77;;;4.37;;
12433;SDS011;6281;49.038;8.372;2022-10-03T01:09:04;6.87;;;4.93;;
12433;SDS011;6281;49.038;8.372;2022-10-03T01:11:56;6.10;;;4.70;;
12433;SDS011;6281;49.038;8.372;2022-10-03T01:14:46;5.70;;;4.73;;
12433;SDS011;6281;49.038;8.372;2022-10-03T01:17:26;5.30;;;4.70;;
12433;SDS011;6281;49.038;8.372;2022-10-03T01:20:17;5.10;;;4.53;;
12433;SDS011;6281;49.038;8.372;2022-10-03T01:23:01;5.97;;;4.93;;
12433;SDS011;6281;49.038;8.372;2022-10-03T01:25:53;4.97;;;4.47;;
12433;SDS011;6281;49.038;8.372;2022-10-03T01:28:40;4.97;;;4.47;;
12433;SDS011;6281;49.038;8.372;2022-10-03T01:31:32;5.97;;;4.67;;
12433;SDS011;6281;49.038;8.372;2022-10-03T01:34:09;6.13;;;4.97;;
12433;SDS011;6281;49.038;8.372;2022-10-03T01:36:42;7.33;;;4.60;;
12433;SDS011;6281;49.038;8.372;2022-10-03T01:39:19;8.20;;;5.27;;
12433;SDS011;6281;49.038;8.372;2022-10-03T01:41:54;8.67;;;5.10;;
12433;SDS011;6281;49.038;8.372;2022-10-03T01:44:27;6.10;;;4.50;;
12433;SDS011;6281;49.038;8.372;2022-10-03T01:47:06;6.73;;;4.77;;
12433;SDS011;6281;49.038;8.372;2022-10-03T01:49:42;6.77;;;4.53;;
12433;SDS011;6281;49.038;8.372;2022-10-03T01:52:14;5.50;;;4.60;;
12433;SDS011;6281;49.038;8.372;2022-10-03T01:54:49;6.77;;;4.73;;
12433;SDS011;6281;49.038;8.372;2022-10-03T01:57:24;5.60;;;4.80;;
12433;SDS011;6281;49.038;8.372;2022-10-03T02:00:03;4.70;;;4.00;;
12433;SDS011;6281;49.038;8.372;2022-10-03T02:02:38;5.93;;;4.47;;
12433;SDS011;6281;49.038;8.372;2022-10-03T02:05:10;8.77;;;4.80;;
12433;SDS011;6281;49.038;8.372;2022-10-03T02:07:47;5.33;;;4.40;;
12433;SDS011;6281;49.038;8.372;2022-10-03T02:10:21;7.30;;;4.40;;
12433;SDS011;6281;49.038;8.372;2022-10-03T02:12:58;6.63;;;4.67;;
12433;SDS011;6281;49.038;8.372;2022-10-03T02:15:40;8.23;;;4.50;;
12433;SDS011;6281;49.038;8.372;2022-10-03T02:18:20;5.40;;;4.37;;
12433;SDS011;6281;49.038;8.372;2022-10-03T02:20:56;6.77;;;4.53;;
12433;SDS011;6281;49.038;8.372;2022-10-03T02:23:37;5.77;;;4.77;;
12433;SDS011;6281;49.038;8.372;2022-10-03T02:29:20;7.73;;;4.53;;
12433;SDS011;6281;49.038;8.372;2022-10-03T02:32:06;6.77;;;5.07;;
12433;SDS011;6281;49.038;8.372;2022-10-03T02:35:01;6.53;;;4.60;;
12433;SDS011;6281;49.038;8.372;2022-10-03T02:40:36;6.00;;;4.50;;
12433;SDS011;6281;49.038;8.372;2022-10-03T02:43:45;5.30;;;4.23;;
12433;SDS011;6281;49.038;8.372;2022-10-03T02:56:14;4.77;;;3.83;;
12433;SDS011;6281;49.038;8.372;2022-10-03T03:02:33;8.40;;;4.20;;
12433;SDS011;6281;49.038;8.372;2022-10-03T03:05:55;4.73;;;4.00;;
12433;SDS011;6281;49.038;8.372;2022-10-03T03:11:59;6.27;;;3.67;;
12433;SDS011;6281;49.038;8.372;2022-10-03T03:15:05;4.60;;;4.10;;
12433;SDS011;6281;49.038;8.372;2022-10-03T03:17:46;4.50;;;3.90;;
12433;SDS011;6281;49.038;8.372;2022-10-03T03:20:31;4.83;;;4.00;;
12433;SDS011;6281;49.038;8.372;2022-10-03T03:23:18;6.07;;;4.30;;
12433;SDS011;6281;49.038;8.372;2022-10-03T03:26:12;5.27;;;4.17;;
12433;SDS011;6281;49.038;8.372;2022-10-03T03:29:05;4.20;;;3.67;;
12433;SDS011;6281;49.038;8.372;2022-10-03T03:31:42;7.90;;;4.30;;
12433;SDS011;6281;49.038;8.372;2022-10-03T03:34:17;5.23;;;4.17;;
12433;SDS011;6281;49.038;8.372;2022-10-03T03:36:53;8.20;;;4.20;;
12433;SDS011;6281;49.038;8.372;2022-10-03T03:39:35;5.00;;;4.17;;
12433;SDS011;6281;49.038;8.372;2022-10-03T03:45:10;4.77;;;4.23;;
12433;SDS011;6281;49.038;8.372;2022-10-03T03:47:56;5.33;;;4.33;;
12433;SDS011;6281;49.038;8.372;2022-10-03T03:50:39;7.87;;;4.07;;
12433;SDS011;6281;49.038;8.372;2022-10-03T03:56:39;4.60;;;4.10;;
12433;SDS011;6281;49.038;8.372;2022-10-03T03:59:24;5.50;;;4.47;;
12433;SDS011;6281;49.038;8.372;2022-10-03T04:02:02;7.63;;;5.67;;
12433;SDS011;6281;49.038;8.372;2022-10-03T04:04:42;5.63;;;4.70;;
12433;SDS011;6281;49.038;8.372;2022-10-03T04:07:19;6.20;;;5.00;;
12433;SDS011;6281;49.038;8.372;2022-10-03T04:12:55;6.93;;;5.13;;
12433;SDS011;6281;49.038;8.372;2022-10-03T04:15:46;5.73;;;5.13;;
12433;SDS011;6281;49.038;8.372;2022-10-03T04:18:30;8.50;;;6.13;;
12433;SDS011;6281;49.038;8.372;2022-10-03T04:21:38;7.67;;;5.40;;
12433;SDS011;6281;49.038;8.372;2022-10-03T04:27:13;5.90;;;5.07;;
12433;SDS011;6281;49.038;8.372;2022-10-03T04:29:55;7.77;;;5.27;;
12433;SDS011;6281;49.038;8.372;2022-10-03T04:32:33;5.63;;;4.70;;
12433;SDS011;6281;49.038;8.372;2022-10-03T04:35:37;6.73;;;4.90;;
12433;SDS011;6281;49.038;8.372;2022-10-03T04:38:24;5.90;;;5.30;;
12433;SDS011;6281;49.038;8.372;2022-10-03T04:41:08;7.10;;;5.10;;
12433;SDS011;6281;49.038;8.372;2022-10-03T04:43:42;5.37;;;4.87;;
12433;SDS011;6281;49.038;8.372;2022-10-03T04:46:21;9.27;;;5.60;;
12433;SDS011;6281;49.038;8.372;2022-10-03T04:48:54;5.67;;;5.07;;
12433;SDS011;6281;49.038;8.372;2022-10-03T04:51:31;6.23;;;4.70;;
12433;SDS011;6281;49.038;8.372;2022-10-03T04:54:11;6.00;;;5.20;;
12433;SDS011;6281;49.038;8.372;2022-10-03T04:56:47;6.50;;;4.73;;
12433;SDS011;6281;49.038;8.372;2022-10-03T04:59:27;5.77;;;4.60;;
12433;SDS011;6281;49.038;8.372;2022-10-03T05:02:10;5.97;;;4.70;;
12433;SDS011;6281;49.038;8.372;2022-10-03T05:04:52;4.30;;;3.87;;
12433;SDS011;6281;49.038;8.372;2022-10-03T05:07:30;7.43;;;5.07;;
12433;SDS011;6281;49.038;8.372;2022-10-03T05:13:05;4.20;;;3.80;;
12433;SDS011;6281;49.038;8.372;2022-10-03T05:15:41;5.73;;;4.17;;
12433;SDS011;6281;49.038;8.372;2022-10-03T05:18:24;4.73;;;3.90;;
12433;SDS011;6281;49.038;8.372;2022-10-03T05:20:59;6.30;;;4.00;;
12433;SDS011;6281;49.038;8.372;2022-10-03T05:23:38;4.57;;;4.00;;
12433;SDS011;6281;49.038;8.372;2022-10-03T05:26:13;18.20;;;11.73;;
12433;SDS011;6281;49.038;8.372;2022-10-03T05:28:48;31.40;;;20.60;;
12433;SDS011;6281;49.038;8.372;2022-10-03T05:31:22;21.27;;;13.77;;
12433;SDS011;6281;49.038;8.372;2022-10-03T05:34:00;17.47;;;10.33;;
12433;SDS011;6281;49.038;8.372;2022-10-03T05:36:33;16.00;;;10.80;;
12433;SDS011;6281;49.038;8.372;2022-10-03T05:39:19;19.57;;;13.03;;
12433;SDS011;6281;49.038;8.372;2022-10-03T05:41:51;17.63;;;11.70;;
12433;SDS011;6281;49.038;8.372;2022-10-03T05:44:24;14.07;;;10.07;;
12433;SDS011;6281;49.038;8.372;2022-10-03T05:47:04;12.07;;;8.77;;
12433;SDS011;6281;49.038;8.372;2022-10-03T05:50:02;12.83;;;9.17;;
12433;SDS011;6281;49.038;8.372;2022-10-03T05:52:56;9.53;;;7.90;;
12433;SDS011;6281;49.038;8.372;2022-10-03T05:55:39;11.50;;;7.70;;
12433;SDS011;6281;49.038;8.372;2022-10-03T05:58:20;16.90;;;8.57;;
12433;SDS011;6281;49.038;8.372;2022-10-03T06:07:08;10.07;;;7.37;;
12433;SDS011;6281;49.038;8.372;2022-10-03T06:12:46;9.93;;;6.77;;
12433;SDS011;6281;49.038;8.372;2022-10-03T06:15:30;10.70;;;7.27;;
12433;SDS011;6281;49.038;8.372;2022-10-03T06:21:24;12.43;;;7.87;;
12433;SDS011;6281;49.038;8.372;2022-10-03T06:24:30;15.60;;;7.73;;
12433;SDS011;6281;49.038;8.372;2022-10-03T06:27:18;10.73;;;7.00;;
12433;SDS011;6281;49.038;8.372;2022-10-03T06:30:20;12.77;;;6.20;;
12433;SDS011;6281;49.038;8.372;2022-10-03T06:33:07;16.47;;;5.97;;
12433;SDS011;6281;49.038;8.372;2022-10-03T06:39:19;35.13;;;5.70;;
12433;SDS011;6281;49.038;8.372;2022-10-03T06:42:26;13.63;;;5.67;;
12433;SDS011;6281;49.038;8.372;2022-10-03T06:45:29;10.20;;;5.50;;
12433;SDS011;6281;49.038;8.372;2022-10-03T06:48:32;8.83;;;5.63;;
12433;SDS011;6281;49.038;8.372;2022-10-03T06:54:22;11.10;;;6.23;;
12433;SDS011;6281;49.038;8.372;2022-10-03T06:57:23;6.13;;;4.70;;
12433;SDS011;6281;49.038;8.372;2022-10-03T07:00:10;10.03;;;4.33;;
12433;SDS011;6281;49.038;8.372;2022-10-03T07:05:51;7.17;;;4.90;;
12433;SDS011;6281;49.038;8.372;2022-10-03T07:08:41;9.17;;;4.73;;
12433;SDS011;6281;49.038;8.372;2022-10-03T07:11:40;15.37;;;5.47;;
12433;SDS011;6281;49.038;8.372;2022-10-03T07:17:32;10.40;;;5.00;;
12433;SDS011;6281;49.038;8.372;2022-10-03T07:20:25;6.93;;;5.50;;
12433;SDS011;6281;49.038;8.372;2022-10-03T07:23:20;6.40;;;5.30;;
12433;SDS011;6281;49.038;8.372;2022-10-03T07:29:29;7.97;;;5.20;;
12433;SDS011;6281;49.038;8.372;2022-10-03T07:32:22;7.57;;;5.33;;
12433;SDS011;6281;49.038;8.372;2022-10-03T07:35:24;8.30;;;6.00;;
12433;SDS011;6281;49.038;8.372;2022-10-03T07:38:29;8.00;;;6.20;;
12433;SDS011;6281;49.038;8.372;2022-10-03T07:51:15;7.20;;;6.50;;
12433;SDS011;6281;49.038;8.372;2022-10-03T07:57:06;8.50;;;5.77;;
12433;SDS011;6281;49.038;8.372;2022-10-03T08:03:01;8.40;;;5.57;;
12433;SDS011;6281;49.038;8.372;2022-10-03T08:11:50;11.47;;;7.50;;
12433;SDS011;6281;49.038;8.372;2022-10-03T08:14:41;11.13;;;7.73;;
12433;SDS011;6281;49.038;8.372;2022-10-03T08:17:29;8.53;;;7.50;;
12433;SDS011;6281;49.038;8.372;2022-10-03T08:20:30;11.40;;;7.57;;
12433;SDS011;6281;49.038;8.372;2022-10-03T08:23:25;10.90;;;8.17;;
12433;SDS011;6281;49.038;8.372;2022-10-03T08:26:08;9.73;;;7.50;;
12433;SDS011;6281;49.038;8.372;2022-10-03T08:28:46;10.20;;;8.00;;
12433;SDS011;6281;49.038;8.372;2022-10-03T08:31:42;13.57;;;8.60;;
12433;SDS011;6281;49.038;8.372;2022-10-03T08:34:51;15.73;;;9.87;;
12433;SDS011;6281;49.038;8.372;2022-10-03T08:37:40;16.27;;;11.10;;
12433;SDS011;6281;49.038;8.372;2022-10-03T08:43:49;20.80;;;12.60;;
12433;SDS011;6281;49.038;8.372;2022-10-03T08:46:39;25.60;;;14.93;;
12433;SDS011;6281;49.038;8.372;2022-10-03T08:49:43;26.17;;;15.30;;
12433;SDS011;6281;49.038;8.372;2022-10-03T08:52:33;22.97;;;14.57;;
12433;SDS011;6281;49.038;8.372;2022-10-03T08:55:34;24.00;;;15.10;;
12433;SDS011;6281;49.038;8.372;2022-10-03T09:01:27;29.00;;;16.63;;
12433;SDS011;6281;49.038;8.372;2022-10-03T09:07:36;19.30;;;12.63;;
12433;SDS011;6281;49.038;8.372;2022-10-03T09:10:26;17.00;;;11.50;;
12433;SDS011;6281;49.038;8.372;2022-10-03T09:13:26;20.20;;;12.83;;
12433;SDS011;6281;49.038;8.372;2022-10-03T09:16:35;23.43;;;13.00;;
12433;SDS011;6281;49.038;8.372;2022-10-03T09:19:28;21.47;;;13.20;;
12433;SDS011;6281;49.038;8.372;2022-10-03T09:22:18;16.57;;;12.00;;
12433;SDS011;6281;49.038;8.372;2022-10-03T09:25:12;24.43;;;13.97;;
12433;SDS011;6281;49.038;8.372;2022-10-03T09:28:17;17.10;;;11.47;;
12433;SDS011;6281;49.038;8.372;2022-10-03T09:31:19;15.03;;;11.27;;
12433;SDS011;6281;49.038;8.372;2022-10-03T09:34:12;13.40;;;10.97;;
12433;SDS011;6281;49.038;8.372;2022-10-03T09:49:40;17.00;;;10.77;;
12433;SDS011;6281;49.038;8.372;2022-10-03T09:52:25;20.17;;;11.50;;
12433;SDS011;6281;49.038;8.372;2022-10-03T09:55:09;16.20;;;10.63;;
12433;SDS011;6281;49.038;8.372;2022-10-03T09:58:00;15.57;;;10.90;;
12433;SDS011;6281;49.038;8.372;2022-10-03T10:00:58;14.57;;;9.93;;
12433;SDS011;6281;49.038;8.372;2022-10-03T10:03:49;16.80;;;9.53;;
12433;SDS011;6281;49.038;8.372;2022-10-03T10:07:00;14.23;;;7.83;;
12433;SDS011;6281;49.038;8.372;2022-10-03T10:10:06;17.33;;;9.10;;
12433;SDS011;6281;49.038;8.372;2022-10-03T10:13:11;14.93;;;8.23;;
12433;SDS011;6281;49.038;8.372;2022-10-03T10:22:08;11.67;;;7.93;;
12433;SDS011;6281;49.038;8.372;2022-10-03T10:25:16;13.97;;;7.90;;
12433;SDS011;6281;49.038;8.372;2022-10-03T10:28:13;16.13;;;8.37;;
12433;SDS011;6281;49.038;8.372;2022-10-03T10:34:14;11.77;;;7.07;;
12433;SDS011;6281;49.038;8.372;2022-10-03T10:40:44;11.43;;;6.17;;
12433;SDS011;6281;49.038;8.372;2022-10-03T10:47:10;11.20;;;5.07;;
12433;SDS011;6281;49.038;8.372;2022-10-03T10:50:08;10.30;;;6.17;;
12433;SDS011;6281;49.038;8.372;2022-10-03T10:56:12;10.90;;;7.70;;
12433;SDS011;6281;49.038;8.372;2022-10-03T11:08:48;9.20;;;5.00;;
12433;SDS011;6281;49.038;8.372;2022-10-03T11:11:49;8.30;;;4.40;;
12433;SDS011;6281;49.038;8.372;2022-10-03T11:14:58;9.40;;;4.13;;
12433;SDS011;6281;49.038;8.372;2022-10-03T11:18:06;7.17;;;3.60;;
12433;SDS011;6281;49.038;8.372;2022-10-03T11:21:12;9.60;;;3.63;;
12433;SDS011;6281;49.038;8.372;2022-10-03T11:24:11;6.90;;;3.17;;
12433;SDS011;6281;49.038;8.372;2022-10-03T11:30:17;5.67;;;3.70;;
12433;SDS011;6281;49.038;8.372;2022-10-03T11:36:25;6.90;;;3.20;;
12433;SDS011;6281;49.038;8.372;2022-10-03T11:39:12;7.17;;;3.07;;
12433;SDS011;6281;49.038;8.372;2022-10-03T11:41:50;6.40;;;3.57;;
12433;SDS011;6281;49.038;8.372;2022-10-03T11:44:28;7.23;;;3.33;;
12433;SDS011;6281;49.038;8.372;2022-10-03T11:50:17;7.57;;;3.40;;
12433;SDS011;6281;49.038;8.372;2022-10-03T11:53:08;8.10;;;3.90;;
12433;SDS011;6281;49.038;8.372;2022-10-03T11:55:44;5.63;;;3.83;;
12433;SDS011;6281;49.038;8.372;2022-10-03T11:58:23;10.87;;;4.13;;
12433;SDS011;6281;49.038;8.372;2022-10-03T12:01:02;7.57;;;3.70;;
12433;SDS011;6281;49.038;8.372;2022-10-03T12:03:43;6.00;;;3.63;;
12433;SDS011;6281;49.038;8.372;2022-10-03T12:06:16;7.97;;;4.37;;
12433;SDS011;6281;49.038;8.372;2022-10-03T12:09:22;9.07;;;5.03;;
12433;SDS011;6281;49.038;8.372;2022-10-03T12:11:55;8.03;;;4.13;;
12433;SDS011;6281;49.038;8.372;2022-10-03T12:14:27;12.93;;;5.00;;
12433;SDS011;6281;49.038;8.372;2022-10-03T12:17:02;8.77;;;5.07;;
12433;SDS011;6281;49.038;8.372;2022-10-03T12:19:35;8.43;;;5.00;;
12433;SDS011;6281;49.038;8.372;2022-10-03T12:22:12;10.53;;;4.27;;
12433;SDS011;6281;49.038;8.372;2022-10-03T12:24:48;5.97;;;4.23;;
12433;SDS011;6281;49.038;8.372;2022-10-03T12:27:18;9.00;;;4.23;;
12433;SDS011;6281;49.038;8.372;2022-10-03T12:29:59;8.50;;;4.00;;
12433;SDS011;6281;49.038;8.372;2022-10-03T12:32:38;7.20;;;4.20;;
12433;SDS011;6281;49.038;8.372;2022-10-03T12:35:18;8.20;;;3.37;;
12433;SDS011;6281;49.038;8.372;2022-10-03T12:38:01;7.87;;;4.43;;
12433;SDS011;6281;49.038;8.372;2022-10-03T12:40:36;7.60;;;3.70;;
12433;SDS011;6281;49.038;8.372;2022-10-03T12:43:14;5.33;;;3.50;;
12433;SDS011;6281;49.038;8.372;2022-10-03T12:45:56;6.13;;;2.97;;
12433;SDS011;6281;49.038;8.372;2022-10-03T12:48:39;7.37;;;3.73;;
12433;SDS011;6281;49.038;8.372;2022-10-03T12:51:20;8.70;;;4.10;;
12433;SDS011;6281;49.038;8.372;2022-10-03T12:53:59;5.90;;;3.10;;
12433;SDS011;6281;49.038;8.372;2022-10-03T12:56:37;6.13;;;2.83;;
12433;SDS011;6281;49.038;8.372;2022-10-03T12:59:19;9.20;;;3.20;;
12433;SDS011;6281;49.038;8.372;2022-10-03T13:02:01;6.40;;;2.90;;
12433;SDS011;6281;49.038;8.372;2022-10-03T13:04:52;5.87;;;2.73;;
12433;SDS011;6281;49.038;8.372;2022-10-03T13:07:38;6.43;;;2.97;;
12433;SDS011;6281;49.038;8.372;2022-10-03T13:10:18;6.50;;;3.10;;
12433;SDS011;6281;49.038;8.372;2022-10-03T13:12:57;4.83;;;2.80;;
12433;SDS011;6281;49.038;8.372;2022-10-03T13:18:35;6.00;;;2.53;;
12433;SDS011;6281;49.038;8.372;2022-10-03T13:21:18;4.40;;;2.50;;
12433;SDS011;6281;49.038;8.372;2022-10-03T13:23:51;6.40;;;2.50;;
12433;SDS011;6281;49.038;8.372;2022-10-03T13:26:24;5.67;;;2.83;;
12433;SDS011;6281;49.038;8.372;2022-10-03T13:29:09;5.33;;;2.03;;
12433;SDS011;6281;49.038;8.372;2022-10-03T13:31:53;4.73;;;2.50;;
12433;SDS011;6281;49.038;8.372;2022-10-03T13:34:30;6.97;;;2.30;;
12433;SDS011;6281;49.038;8.372;2022-10-03T13:37:03;4.10;;;2.07;;
12433;SDS011;6281;49.038;8.372;2022-10-03T13:39:38;4.53;;;2.00;;
12433;SDS011;6281;49.038;8.372;2022-10-03T13:42:12;7.23;;;2.13;;
12433;SDS011;6281;49.038;8.372;2022-10-03T13:44:46;4.00;;;2.17;;
12433;SDS011;6281;49.038;8.372;2022-10-03T13:47:26;5.17;;;2.00;;
12433;SDS011;6281;49.038;8.372;2022-10-03T13:50:12;5.77;;;2.20;;
12433;SDS011;6281;49.038;8.372;2022-10-03T13:52:44;6.20;;;2.30;;
12433;SDS011;6281;49.038;8.372;2022-10-03T13:55:29;4.23;;;2.20;;
12433;SDS011;6281;49.038;8.372;2022-10-03T14:01:09;4.30;;;2.17;;
12433;SDS011;6281;49.038;8.372;2022-10-03T14:03:58;6.67;;;2.43;;
12433;SDS011;6281;49.038;8.372;2022-10-03T14:06:48;7.93;;;2.23;;
12433;SDS011;6281;49.038;8.372;2022-10-03T14:09:33;5.57;;;2.20;;
12433;SDS011;6281;49.038;8.372;2022-10-03T14:12:21;5.17;;;1.80;;
12433;SDS011;6281;49.038;8.372;2022-10-03T14:14:58;5.13;;;2.00;;
12433;SDS011;6281;49.038;8.372;2022-10-03T14:17:40;6.03;;;1.90;;
12433;SDS011;6281;49.038;8.372;2022-10-03T14:20:17;3.97;;;1.83;;
12433;SDS011;6281;49.038;8.372;2022-10-03T14:25:41;3.97;;;2.07;;
12433;SDS011;6281;49.038;8.372;2022-10-03T14:28:14;4.83;;;2.30;;
12433;SDS011;6281;49.038;8.372;2022-10-03T14:30:50;5.40;;;2.37;;
12433;SDS011;6281;49.038;8.372;2022-10-03T14:33:27;6.63;;;2.50;;
12433;SDS011;6281;49.038;8.372;2022-10-03T14:36:06;7.33;;;2.80;;
12433;SDS011;6281;49.038;8.372;2022-10-03T14:38:49;3.97;;;2.07;;
12433;SDS011;6281;49.038;8.372;2022-10-03T14:41:33;4.33;;;2.00;;
12433;SDS011;6281;49.038;8.372;2022-10-03T14:44:11;6.10;;;1.87;;
12433;SDS011;6281;49.038;8.372;2022-10-03T14:46:43;4.63;;;2.10;;
12433;SDS011;6281;49.038;8.372;2022-10-03T14:49:16;3.40;;;1.70;;
12433;SDS011;6281;49.038;8.372;2022-10-03T14:51:49;3.33;;;2.20;;
12433;SDS011;6281;49.038;8.372;2022-10-03T14:54:21;4.13;;;1.90;;
12433;SDS011;6281;49.038;8.372;2022-10-03T14:56:52;4.67;;;1.93;;
12433;SDS011;6281;49.038;8.372;2022-10-03T14:59:21;6.43;;;2.07;;
12433;SDS011;6281;49.038;8.372;2022-10-03T15:01:51;4.70;;;2.33;;
12433;SDS011;6281;49.038;8.372;2022-10-03T15:04:28;3.97;;;2.13;;
12433;SDS011;6281;49.038;8.372;2022-10-03T15:06:58;5.90;;;2.60;;
12433;SDS011;6281;49.038;8.372;2022-10-03T15:09:31;3.60;;;1.80;;
12433;SDS011;6281;49.038;8.372;2022-10-03T15:12:08;6.27;;;2.20;;
12433;SDS011;6281;49.038;8.372;2022-10-03T15:14:41;5.30;;;2.10;;
12433;SDS011;6281;49.038;8.372;2022-10-03T15:17:16;5.07;;;2.23;;
12433;SDS011;6281;49.038;8.372;2022-10-03T15:19:47;4.30;;;1.93;;
12433;SDS011;6281;49.038;8.372;2022-10-03T15:22:24;7.10;;;2.20;;
12433;SDS011;6281;49.038;8.372;2022-10-03T15:24:59;3.83;;;2.10;;
12433;SDS011;6281;49.038;8.372;2022-10-03T15:27:31;5.90;;;2.23;;
12433;SDS011;6281;49.038;8.372;2022-10-03T15:30:00;5.50;;;2.30;;
12433;SDS011;6281;49.038;8.372;2022-10-03T15:32:31;4.17;;;2.17;;
12433;SDS011;6281;49.038;8.372;2022-10-03T15:35:02;3.93;;;1.80;;
12433;SDS011;6281;49.038;8.372;2022-10-03T15:37:30;5.37;;;2.27;;
12433;SDS011;6281;49.038;8.372;2022-10-03T15:40:02;2.67;;;2.10;;
12433;SDS011;6281;49.038;8.372;2022-10-03T15:42:44;4.60;;;2.10;;
12433;SDS011;6281;49.038;8.372;2022-10-03T15:45:17;6.30;;;2.30;;
12433;SDS011;6281;49.038;8.372;2022-10-03T15:47:49;6.80;;;2.10;;
12433;SDS011;6281;49.038;8.372;2022-10-03T15:50:18;3.87;;;1.80;;
12433;SDS011;6281;49.038;8.372;2022-10-03T15:52:49;5.67;;;2.00;;
12433;SDS011;6281;49.038;8.372;2022-10-03T15:55:18;3.70;;;2.40;;
12433;SDS011;6281;49.038;8.372;2022-10-03T15:57:52;7.37;;;2.30;;
12433;SDS011;6281;49.038;8.372;2022-10-03T16:00:26;4.50;;;2.13;;
12433;SDS011;6281;49.038;8.372;2022-10-03T16:02:59;4.30;;;2.03;;
12433;SDS011;6281;49.038;8.372;2022-10-03T16:05:33;3.47;;;1.73;;
12433;SDS011;6281;49.038;8.372;2022-10-03T16:08:03;6.67;;;2.43;;
12433;SDS011;6281;49.038;8.372;2022-10-03T16:10:33;3.97;;;1.90;;
12433;SDS011;6281;49.038;8.372;2022-10-03T16:13:08;4.67;;;1.80;;
12433;SDS011;6281;49.038;8.372;2022-10-03T16:18:50;6.17;;;2.67;;
12433;SDS011;6281;49.038;8.372;2022-10-03T16:21:37;3.83;;;2.07;;
12433;SDS011;6281;49.038;8.372;2022-10-03T16:24:21;4.30;;;2.40;;
12433;SDS011;6281;49.038;8.372;2022-10-03T16:26:56;4.50;;;2.70;;
12433;SDS011;6281;49.038;8.372;2022-10-03T16:29:34;4.50;;;2.57;;
12433;SDS011;6281;49.038;8.372;2022-10-03T16:32:04;4.17;;;2.43;;
12433;SDS011;6281;49.038;8.372;2022-10-03T16:34:34;3.53;;;2.13;;
12433;SDS011;6281;49.038;8.372;2022-10-03T16:37:14;5.63;;;2.70;;
12433;SDS011;6281;49.038;8.372;2022-10-03T16:39:44;5.03;;;2.57;;
12433;SDS011;6281;49.038;8.372;2022-10-03T16:42:19;4.77;;;2.40;;
12433;SDS011;6281;49.038;8.372;2022-10-03T16:44:52;5.23;;;3.10;;
12433;SDS011;6281;49.038;8.372;2022-10-03T16:47:30;4.50;;;2.60;;
12433;SDS011;6281;49.038;8.372;2022-10-03T16:50:00;4.27;;;2.70;;
12433;SDS011;6281;49.038;8.372;2022-10-03T16:52:46;4.93;;;3.40;;
12433;SDS011;6281;49.038;8.372;2022-10-03T16:55:16;7.73;;;4.33;;
12433;SDS011;6281;49.038;8.372;2022-10-03T16:57:48;4.83;;;3.73;;
12433;SDS011;6281;49.038;8.372;2022-10-03T17:00:23;5.23;;;3.67;;
12433;SDS011;6281;49.038;8.372;2022-10-03T17:02:56;5.07;;;3.47;;
12433;SDS011;6281;49.038;8.372;2022-10-03T17:05:23;5.30;;;3.60;;
12433;SDS011;6281;49.038;8.372;2022-10-03T17:07:50;6.57;;;3.60;;
12433;SDS011;6281;49.038;8.372;2022-10-03T17:10:31;8.63;;;3.93;;
12433;SDS011;6281;49.038;8.372;2022-10-03T17:13:02;8.50;;;3.90;;
12433;SDS011;6281;49.038;8.372;2022-10-03T17:15:40;8.67;;;3.83;;
12433;SDS011;6281;49.038;8.372;2022-10-03T17:18:15;6.40;;;3.50;;
12433;SDS011;6281;49.038;8.372;2022-10-03T17:20:47;5.63;;;4.40;;
12433;SDS011;6281;49.038;8.372;2022-10-03T17:23:19;7.60;;;5.20;;
12433;SDS011;6281;49.038;8.372;2022-10-03T17:25:58;8.60;;;5.47;;
12433;SDS011;6281;49.038;8.372;2022-10-03T17:28:36;7.70;;;5.47;;
12433;SDS011;6281;49.038;8.372;2022-10-03T17:31:11;9.27;;;5.63;;
12433;SDS011;6281;49.038;8.372;2022-10-03T17:33:53;8.03;;;4.90;;
12433;SDS011;6281;49.038;8.372;2022-10-03T17:39:36;13.60;;;5.97;;
12433;SDS011;6281;49.038;8.372;2022-10-03T17:42:12;7.80;;;5.13;;
12433;SDS011;6281;49.038;8.372;2022-10-03T17:44:53;6.43;;;4.60;;
12433;SDS011;6281;49.038;8.372;2022-10-03T17:47:29;6.53;;;4.50;;
12433;SDS011;6281;49.038;8.372;2022-10-03T17:50:04;6.40;;;4.40;;
12433;SDS011;6281;49.038;8.372;2022-10-03T17:52:38;7.80;;;4.30;;
12433;SDS011;6281;49.038;8.372;2022-10-03T17:55:08;8.03;;;4.47;;
12433;SDS011;6281;49.038;8.372;2022-10-03T17:57:43;5.67;;;4.00;;
12433;SDS011;6281;49.038;8.372;2022-10-03T18:00:16;6.03;;;3.70;;
12433;SDS011;6281;49.038;8.372;2022-10-03T18:02:48;9.10;;;4.27;;
12433;SDS011;6281;49.038;8.372;2022-10-03T18:05:21;10.73;;;4.10;;
12433;SDS011;6281;49.038;8.372;2022-10-03T18:07:52;8.47;;;3.50;;
12433;SDS011;6281;49.038;8.372;2022-10-03T18:10:22;4.97;;;3.83;;
12433;SDS011;6281;49.038;8.372;2022-10-03T18:12:52;5.90;;;3.50;;
12433;SDS011;6281;49.038;8.372;2022-10-03T18:18:13;6.00;;;3.60;;
12433;SDS011;6281;49.038;8.372;2022-10-03T18:21:12;6.23;;;4.03;;
12433;SDS011;6281;49.038;8.372;2022-10-03T18:23:47;7.20;;;3.80;;
12433;SDS011;6281;49.038;8.372;2022-10-03T18:26:32;5.57;;;3.83;;
12433;SDS011;6281;49.038;8.372;2022-10-03T18:29:08;5.93;;;3.70;;
12433;SDS011;6281;49.038;8.372;2022-10-03T18:31:43;4.43;;;3.80;;
12433;SDS011;6281;49.038;8.372;2022-10-03T18:34:16;4.53;;;3.77;;
12433;SDS011;6281;49.038;8.372;2022-10-03T18:36:46;7.57;;;4.07;;
12433;SDS011;6281;49.038;8.372;2022-10-03T18:39:17;8.13;;;3.77;;
12433;SDS011;6281;49.038;8.372;2022-10-03T18:41:48;6.77;;;3.97;;
12433;SDS011;6281;49.038;8.372;2022-10-03T18:44:18;7.23;;;3.87;;
12433;SDS011;6281;49.038;8.372;2022-10-03T18:46:47;6.57;;;4.43;;
12433;SDS011;6281;49.038;8.372;2022-10-03T18:49:25;8.13;;;4.23;;
12433;SDS011;6281;49.038;8.372;2022-10-03T18:51:54;8.70;;;4.70;;
12433;SDS011;6281;49.038;8.372;2022-10-03T18:54:31;6.90;;;4.07;;
12433;SDS011;6281;49.038;8.372;2022-10-03T18:57:05;8.53;;;4.60;;
12433;SDS011;6281;49.038;8.372;2022-10-03T18:59:39;6.30;;;4.20;;
12433;SDS011;6281;49.038;8.372;2022-10-03T19:02:14;8.87;;;4.37;;
12433;SDS011;6281;49.038;8.372;2022-10-03T19:04:48;8.00;;;4.77;;
12433;SDS011;6281;49.038;8.372;2022-10-03T19:07:18;5.00;;;4.07;;
12433;SDS011;6281;49.038;8.372;2022-10-03T19:12:45;6.27;;;4.33;;
12433;SDS011;6281;49.038;8.372;2022-10-03T19:15:16;10.03;;;4.73;;
12433;SDS011;6281;49.038;8.372;2022-10-03T19:17:50;7.63;;;4.73;;
12433;SDS011;6281;49.038;8.372;2022-10-03T19:20:35;5.57;;;4.90;;
12433;SDS011;6281;49.038;8.372;2022-10-03T19:23:07;6.73;;;5.40;;
12433;SDS011;6281;49.038;8.372;2022-10-03T19:25:39;6.50;;;4.83;;